sensor_id;sensor_type;location;lat;lon;timestamp;P1;durP1;ratioP1;P2;durP2;ratioP2
43994;SDS011;51687;52.160;5.298;2023-03-01T00:02:06;10.52;;;9.70;;
43994;SDS011;51687;52.160;5.298;2023-03-01T00:04:33;11.80;;;9.45;;
43994;SDS011;51687;52.160;5.298;2023-03-01T00:07:01;12.40;;;9.85;;
43994;SDS011;51687;52.160;5.298;2023-03-01T00:09:28;10.90;;;9.90;;
43994;SDS011;51687;52.160;5.298;2023-03-01T00:11:55;11.15;;;10.05;;
43994;SDS011;51687;52.160;5.298;2023-03-01T00:14:22;11.07;;;10.07;;
43994;SDS011;51687;52.160;5.298;2023-03-01T00:16:49;11.45;;;10.55;;
43994;SDS011;51687;52.160;5.298;2023-03-01T00:19:17;11.30;;;10.30;;
43994;SDS011;51687;52.160;5.298;2023-03-01T00:21:45;10.98;;;9.98;;
43994;SDS011;51687;52.160;5.298;2023-03-01T00:24:12;10.90;;;10.00;;
43994;SDS011;51687;52.160;5.298;2023-03-01T00:26:39;10.70;;;9.70;;
43994;SDS011;51687;52.160;5.298;2023-03-01T00:29:06;11.23;;;10.23;;
43994;SDS011;51687;52.160;5.298;2023-03-01T00:31:33;11.48;;;10.45;;
43994;SDS011;51687;52.160;5.298;2023-03-01T00:34:02;10.60;;;9.60;;
43994;SDS011;51687;52.160;5.298;2023-03-01T00:36:31;10.45;;;9.45;;
43994;SDS011;51687;52.160;5.298;2023-03-01T00:38:59;10.48;;;9.57;;
43994;SDS011;51687;52.160;5.298;2023-03-01T00:41:27;10.82;;;9.82;;
43994;SDS011;51687;52.160;5.298;2023-03-01T00:43:54;10.95;;;9.95;;
43994;SDS011;51687;52.160;5.298;2023-03-01T00:46:22;10.20;;;9.20;;
43994;SDS011;51687;52.160;5.298;2023-03-01T00:48:50;10.13;;;9.32;;
43994;SDS011;51687;52.160;5.298;2023-03-01T00:51:18;10.80;;;9.90;;
43994;SDS011;51687;52.160;5.298;2023-03-01T00:53:46;11.55;;;10.45;;
43994;SDS011;51687;52.160;5.298;2023-03-01T00:56:14;10.55;;;9.65;;
43994;SDS011;51687;52.160;5.298;2023-03-01T00:58:41;11.10;;;10.10;;
43994;SDS011;51687;52.160;5.298;2023-03-01T01:01:10;11.18;;;10.27;;
43994;SDS011;51687;52.160;5.298;2023-03-01T01:03:44;11.18;;;10.27;;
43994;SDS011;51687;52.160;5.298;2023-03-01T01:06:15;12.27;;;11.18;;
43994;SDS011;51687;52.160;5.298;2023-03-01T01:08:42;10.73;;;9.75;;
43994;SDS011;51687;52.160;5.298;2023-03-01T01:11:10;11.48;;;10.57;;
43994;SDS011;51687;52.160;5.298;2023-03-01T01:13:37;11.65;;;10.68;;
43994;SDS011;51687;52.160;5.298;2023-03-01T01:16:05;11.50;;;10.50;;
43994;SDS011;51687;52.160;5.298;2023-03-01T01:18:32;11.32;;;10.32;;
43994;SDS011;51687;52.160;5.298;2023-03-01T01:21:03;10.88;;;9.95;;
43994;SDS011;51687;52.160;5.298;2023-03-01T01:23:31;10.73;;;9.82;;
43994;SDS011;51687;52.160;5.298;2023-03-01T01:26:02;11.10;;;10.20;;
43994;SDS011;51687;52.160;5.298;2023-03-01T01:28:30;11.45;;;10.57;;
43994;SDS011;51687;52.160;5.298;2023-03-01T01:30:58;11.20;;;10.30;;
43994;SDS011;51687;52.160;5.298;2023-03-01T01:33:25;10.73;;;9.90;;
43994;SDS011;51687;52.160;5.298;2023-03-01T01:35:53;16.38;;;10.85;;
43994;SDS011;51687;52.160;5.298;2023-03-01T01:38:20;11.32;;;10.43;;
43994;SDS011;51687;52.160;5.298;2023-03-01T01:40:48;11.38;;;10.45;;
43994;SDS011;51687;52.160;5.298;2023-03-01T01:43:26;11.63;;;10.73;;
43994;SDS011;51687;52.160;5.298;2023-03-01T01:45:57;11.48;;;10.48;;
43994;SDS011;51687;52.160;5.298;2023-03-01T01:48:28;10.73;;;9.88;;
43994;SDS011;51687;52.160;5.298;2023-03-01T01:51:07;11.80;;;10.88;;
43994;SDS011;51687;52.160;5.298;2023-03-01T01:53:36;11.10;;;10.25;;
43994;SDS011;51687;52.160;5.298;2023-03-01T01:56:03;11.13;;;10.32;;
43994;SDS011;51687;52.160;5.298;2023-03-01T01:58:34;10.60;;;9.77;;
43994;SDS011;51687;52.160;5.298;2023-03-01T02:01:02;10.40;;;9.60;;
43994;SDS011;51687;52.160;5.298;2023-03-01T02:03:30;11.50;;;10.40;;
43994;SDS011;51687;52.160;5.298;2023-03-01T02:06:13;12.27;;;11.25;;
43994;SDS011;51687;52.160;5.298;2023-03-01T02:08:50;11.73;;;10.80;;
43994;SDS011;51687;52.160;5.298;2023-03-01T02:11:18;11.35;;;10.25;;
43994;SDS011;51687;52.160;5.298;2023-03-01T02:13:46;11.45;;;10.50;;
43994;SDS011;51687;52.160;5.298;2023-03-01T02:16:14;11.05;;;10.18;;
43994;SDS011;51687;52.160;5.298;2023-03-01T02:18:41;11.38;;;10.48;;
43994;SDS011;51687;52.160;5.298;2023-03-01T02:23:36;11.13;;;10.23;;
43994;SDS011;51687;52.160;5.298;2023-03-01T02:28:50;11.98;;;11.07;;
43994;SDS011;51687;52.160;5.298;2023-03-01T02:31:18;12.52;;;11.35;;
43994;SDS011;51687;52.160;5.298;2023-03-01T02:34:04;11.93;;;10.85;;
43994;SDS011;51687;52.160;5.298;2023-03-01T02:36:36;12.18;;;10.32;;
43994;SDS011;51687;52.160;5.298;2023-03-01T02:39:05;11.93;;;10.93;;
43994;SDS011;51687;52.160;5.298;2023-03-01T02:41:34;12.02;;;11.02;;
43994;SDS011;51687;52.160;5.298;2023-03-01T02:44:03;12.63;;;11.55;;
43994;SDS011;51687;52.160;5.298;2023-03-01T02:46:31;12.00;;;10.82;;
43994;SDS011;51687;52.160;5.298;2023-03-01T02:48:58;13.25;;;12.27;;
43994;SDS011;51687;52.160;5.298;2023-03-01T02:56:48;13.18;;;12.18;;
43994;SDS011;51687;52.160;5.298;2023-03-01T02:59:16;12.50;;;11.50;;
43994;SDS011;51687;52.160;5.298;2023-03-01T03:01:44;10.90;;;9.90;;
43994;SDS011;51687;52.160;5.298;2023-03-01T03:04:16;11.85;;;10.98;;
43994;SDS011;51687;52.160;5.298;2023-03-01T03:06:44;10.55;;;9.75;;
43994;SDS011;51687;52.160;5.298;2023-03-01T03:09:12;12.10;;;11.15;;
43994;SDS011;51687;52.160;5.298;2023-03-01T03:11:42;12.10;;;11.20;;
43994;SDS011;51687;52.160;5.298;2023-03-01T03:14:10;12.40;;;11.60;;
43994;SDS011;51687;52.160;5.298;2023-03-01T03:16:42;12.18;;;11.27;;
43994;SDS011;51687;52.160;5.298;2023-03-01T03:19:09;13.20;;;12.10;;
43994;SDS011;51687;52.160;5.298;2023-03-01T03:21:37;13.00;;;12.00;;
43994;SDS011;51687;52.160;5.298;2023-03-01T03:24:04;14.10;;;12.18;;
43994;SDS011;51687;52.160;5.298;2023-03-01T03:26:31;12.95;;;11.93;;
43994;SDS011;51687;52.160;5.298;2023-03-01T03:28:59;14.07;;;13.07;;
43994;SDS011;51687;52.160;5.298;2023-03-01T03:31:26;13.02;;;12.02;;
43994;SDS011;51687;52.160;5.298;2023-03-01T03:33:54;13.10;;;12.10;;
43994;SDS011;51687;52.160;5.298;2023-03-01T03:36:22;14.95;;;13.77;;
43994;SDS011;51687;52.160;5.298;2023-03-01T03:38:50;15.20;;;13.90;;
43994;SDS011;51687;52.160;5.298;2023-03-01T03:41:17;14.32;;;13.18;;
43994;SDS011;51687;52.160;5.298;2023-03-01T03:43:44;14.70;;;13.40;;
43994;SDS011;51687;52.160;5.298;2023-03-01T03:46:11;14.10;;;13.10;;
43994;SDS011;51687;52.160;5.298;2023-03-01T03:48:40;15.05;;;13.55;;
43994;SDS011;51687;52.160;5.298;2023-03-01T03:51:12;14.45;;;13.45;;
43994;SDS011;51687;52.160;5.298;2023-03-01T03:53:40;13.73;;;12.63;;
43994;SDS011;51687;52.160;5.298;2023-03-01T03:56:07;14.00;;;12.70;;
43994;SDS011;51687;52.160;5.298;2023-03-01T03:58:35;14.77;;;13.52;;
43994;SDS011;51687;52.160;5.298;2023-03-01T04:01:02;15.27;;;13.90;;
43994;SDS011;51687;52.160;5.298;2023-03-01T04:03:29;15.30;;;14.07;;
43994;SDS011;51687;52.160;5.298;2023-03-01T04:05:58;14.07;;;13.07;;
43994;SDS011;51687;52.160;5.298;2023-03-01T04:08:26;15.70;;;14.32;;
43994;SDS011;51687;52.160;5.298;2023-03-01T04:10:57;14.82;;;13.73;;
43994;SDS011;51687;52.160;5.298;2023-03-01T04:13:26;14.60;;;13.50;;
43994;SDS011;51687;52.160;5.298;2023-03-01T04:15:53;15.18;;;13.80;;
43994;SDS011;51687;52.160;5.298;2023-03-01T04:18:22;14.52;;;13.43;;
43994;SDS011;51687;52.160;5.298;2023-03-01T04:23:18;15.77;;;14.38;;
43994;SDS011;51687;52.160;5.298;2023-03-01T04:28:20;16.30;;;14.98;;
43994;SDS011;51687;52.160;5.298;2023-03-01T04:30:52;16.63;;;15.13;;
43994;SDS011;51687;52.160;5.298;2023-03-01T04:33:20;16.10;;;14.80;;
43994;SDS011;51687;52.160;5.298;2023-03-01T04:35:47;15.15;;;13.93;;
43994;SDS011;51687;52.160;5.298;2023-03-01T04:38:16;16.52;;;15.23;;
43994;SDS011;51687;52.160;5.298;2023-03-01T04:40:43;14.80;;;13.70;;
43994;SDS011;51687;52.160;5.298;2023-03-01T04:43:11;15.93;;;14.60;;
43994;SDS011;51687;52.160;5.298;2023-03-01T04:45:40;16.20;;;14.73;;
43994;SDS011;51687;52.160;5.298;2023-03-01T04:48:07;15.07;;;13.88;;
43994;SDS011;51687;52.160;5.298;2023-03-01T04:50:34;15.70;;;14.50;;
43994;SDS011;51687;52.160;5.298;2023-03-01T04:53:01;16.35;;;15.07;;
43994;SDS011;51687;52.160;5.298;2023-03-01T04:55:29;15.27;;;14.07;;
43994;SDS011;51687;52.160;5.298;2023-03-01T04:57:56;15.57;;;14.45;;
43994;SDS011;51687;52.160;5.298;2023-03-01T05:00:23;16.55;;;15.05;;
43994;SDS011;51687;52.160;5.298;2023-03-01T05:08:00;17.55;;;16.25;;
43994;SDS011;51687;52.160;5.298;2023-03-01T05:10:28;16.10;;;14.90;;
43994;SDS011;51687;52.160;5.298;2023-03-01T05:12:56;16.05;;;14.85;;
43994;SDS011;51687;52.160;5.298;2023-03-01T05:15:24;15.32;;;14.23;;
43994;SDS011;51687;52.160;5.298;2023-03-01T05:17:53;15.88;;;14.68;;
43994;SDS011;51687;52.160;5.298;2023-03-01T05:22:52;15.95;;;14.60;;
43994;SDS011;51687;52.160;5.298;2023-03-01T05:25:20;16.85;;;15.60;;
43994;SDS011;51687;52.160;5.298;2023-03-01T05:27:47;16.88;;;15.60;;
43994;SDS011;51687;52.160;5.298;2023-03-01T05:30:14;17.88;;;16.48;;
43994;SDS011;51687;52.160;5.298;2023-03-01T05:32:46;18.17;;;16.77;;
43994;SDS011;51687;52.160;5.298;2023-03-01T05:35:15;18.48;;;16.83;;
43994;SDS011;51687;52.160;5.298;2023-03-01T05:40:12;18.03;;;16.60;;
43994;SDS011;51687;52.160;5.298;2023-03-01T05:42:44;17.83;;;16.42;;
43994;SDS011;51687;52.160;5.298;2023-03-01T05:45:13;18.23;;;16.63;;
43994;SDS011;51687;52.160;5.298;2023-03-01T05:47:42;18.70;;;17.08;;
43994;SDS011;51687;52.160;5.298;2023-03-01T05:50:13;18.55;;;17.15;;
43994;SDS011;51687;52.160;5.298;2023-03-01T05:52:49;17.73;;;16.40;;
43994;SDS011;51687;52.160;5.298;2023-03-01T05:55:17;18.65;;;17.08;;
43994;SDS011;51687;52.160;5.298;2023-03-01T05:57:46;19.48;;;17.73;;
43994;SDS011;51687;52.160;5.298;2023-03-01T06:00:14;17.52;;;16.23;;
43994;SDS011;51687;52.160;5.298;2023-03-01T06:02:42;18.05;;;16.60;;
43994;SDS011;51687;52.160;5.298;2023-03-01T06:05:09;19.00;;;17.60;;
43994;SDS011;51687;52.160;5.298;2023-03-01T06:07:38;19.17;;;17.67;;
43994;SDS011;51687;52.160;5.298;2023-03-01T06:10:05;18.67;;;17.13;;
43994;SDS011;51687;52.160;5.298;2023-03-01T06:12:33;18.55;;;17.05;;
43994;SDS011;51687;52.160;5.298;2023-03-01T06:15:00;19.88;;;18.30;;
43994;SDS011;51687;52.160;5.298;2023-03-01T06:17:29;18.63;;;17.20;;
43994;SDS011;51687;52.160;5.298;2023-03-01T06:19:56;19.35;;;17.85;;
43994;SDS011;51687;52.160;5.298;2023-03-01T06:22:24;19.77;;;18.20;;
43994;SDS011;51687;52.160;5.298;2023-03-01T06:24:51;19.05;;;17.65;;
43994;SDS011;51687;52.160;5.298;2023-03-01T06:27:18;19.20;;;17.63;;
43994;SDS011;51687;52.160;5.298;2023-03-01T06:29:45;19.48;;;17.85;;
43994;SDS011;51687;52.160;5.298;2023-03-01T06:32:12;20.20;;;18.55;;
43994;SDS011;51687;52.160;5.298;2023-03-01T06:34:38;20.02;;;18.30;;
43994;SDS011;51687;52.160;5.298;2023-03-01T06:37:05;20.85;;;18.80;;
43994;SDS011;51687;52.160;5.298;2023-03-01T06:39:33;19.67;;;18.17;;
43994;SDS011;51687;52.160;5.298;2023-03-01T06:42:00;20.25;;;18.73;;
43994;SDS011;51687;52.160;5.298;2023-03-01T06:44:26;21.42;;;19.83;;
43994;SDS011;51687;52.160;5.298;2023-03-01T06:46:53;21.00;;;19.08;;
43994;SDS011;51687;52.160;5.298;2023-03-01T06:49:21;23.05;;;21.45;;
43994;SDS011;51687;52.160;5.298;2023-03-01T06:51:47;22.60;;;20.70;;
43994;SDS011;51687;52.160;5.298;2023-03-01T06:54:14;23.20;;;21.52;;
43994;SDS011;51687;52.160;5.298;2023-03-01T06:56:41;23.77;;;21.98;;
43994;SDS011;51687;52.160;5.298;2023-03-01T06:59:08;24.13;;;22.33;;
43994;SDS011;51687;52.160;5.298;2023-03-01T07:01:34;23.98;;;22.27;;
43994;SDS011;51687;52.160;5.298;2023-03-01T07:04:01;25.70;;;23.42;;
43994;SDS011;51687;52.160;5.298;2023-03-01T07:06:28;27.17;;;25.20;;
43994;SDS011;51687;52.160;5.298;2023-03-01T07:08:56;29.85;;;27.25;;
43994;SDS011;51687;52.160;5.298;2023-03-01T07:11:23;30.83;;;28.42;;
43994;SDS011;51687;52.160;5.298;2023-03-01T07:13:50;31.58;;;28.92;;
43994;SDS011;51687;52.160;5.298;2023-03-01T07:16:17;34.22;;;31.35;;
43994;SDS011;51687;52.160;5.298;2023-03-01T07:18:45;32.90;;;30.33;;
43994;SDS011;51687;52.160;5.298;2023-03-01T07:21:12;31.73;;;29.02;;
43994;SDS011;51687;52.160;5.298;2023-03-01T07:23:40;30.75;;;28.27;;
43994;SDS011;51687;52.160;5.298;2023-03-01T07:26:07;30.33;;;27.83;;
43994;SDS011;51687;52.160;5.298;2023-03-01T07:28:34;26.95;;;25.05;;
43994;SDS011;51687;52.160;5.298;2023-03-01T07:31:04;27.48;;;24.45;;
43994;SDS011;51687;52.160;5.298;2023-03-01T07:33:32;25.15;;;23.15;;
43994;SDS011;51687;52.160;5.298;2023-03-01T07:35:59;26.33;;;24.20;;
43994;SDS011;51687;52.160;5.298;2023-03-01T07:40:59;27.52;;;22.35;;
43994;SDS011;51687;52.160;5.298;2023-03-01T07:43:31;24.33;;;22.33;;
43994;SDS011;51687;52.160;5.298;2023-03-01T07:46:01;25.52;;;22.65;;
43994;SDS011;51687;52.160;5.298;2023-03-01T07:48:28;24.70;;;22.55;;
43994;SDS011;51687;52.160;5.298;2023-03-01T07:51:03;24.30;;;21.80;;
43994;SDS011;51687;52.160;5.298;2023-03-01T07:53:31;24.52;;;22.45;;
43994;SDS011;51687;52.160;5.298;2023-03-01T07:56:10;25.77;;;23.60;;
43994;SDS011;51687;52.160;5.298;2023-03-01T07:58:38;24.93;;;22.63;;
43994;SDS011;51687;52.160;5.298;2023-03-01T08:01:08;25.60;;;23.42;;
43994;SDS011;51687;52.160;5.298;2023-03-01T08:03:37;29.23;;;26.30;;
43994;SDS011;51687;52.160;5.298;2023-03-01T08:06:05;34.17;;;30.77;;
43994;SDS011;51687;52.160;5.298;2023-03-01T08:08:34;33.80;;;30.20;;
43994;SDS011;51687;52.160;5.298;2023-03-01T08:11:02;32.58;;;29.50;;
43994;SDS011;51687;52.160;5.298;2023-03-01T08:16:04;28.90;;;26.48;;
43994;SDS011;51687;52.160;5.298;2023-03-01T08:18:39;27.50;;;24.63;;
43994;SDS011;51687;52.160;5.298;2023-03-01T08:21:10;28.95;;;26.23;;
43994;SDS011;51687;52.160;5.298;2023-03-01T08:23:42;25.75;;;23.50;;
43994;SDS011;51687;52.160;5.298;2023-03-01T08:26:17;28.63;;;25.88;;
43994;SDS011;51687;52.160;5.298;2023-03-01T08:28:45;24.90;;;22.63;;
43994;SDS011;51687;52.160;5.298;2023-03-01T08:31:14;24.08;;;21.95;;
43994;SDS011;51687;52.160;5.298;2023-03-01T08:33:50;22.27;;;20.13;;
43994;SDS011;51687;52.160;5.298;2023-03-01T08:36:25;23.38;;;21.58;;
43994;SDS011;51687;52.160;5.298;2023-03-01T08:39:03;22.67;;;20.77;;
43994;SDS011;51687;52.160;5.298;2023-03-01T08:41:30;21.85;;;19.92;;
43994;SDS011;51687;52.160;5.298;2023-03-01T08:43:57;21.17;;;19.35;;
43994;SDS011;51687;52.160;5.298;2023-03-01T08:46:26;22.70;;;20.40;;
43994;SDS011;51687;52.160;5.298;2023-03-01T08:48:58;21.25;;;19.48;;
43994;SDS011;51687;52.160;5.298;2023-03-01T08:51:25;22.52;;;20.55;;
43994;SDS011;51687;52.160;5.298;2023-03-01T08:53:52;22.77;;;19.77;;
43994;SDS011;51687;52.160;5.298;2023-03-01T08:56:20;19.73;;;18.05;;
43994;SDS011;51687;52.160;5.298;2023-03-01T08:58:47;21.38;;;19.08;;
43994;SDS011;51687;52.160;5.298;2023-03-01T09:01:16;23.77;;;21.23;;
43994;SDS011;51687;52.160;5.298;2023-03-01T09:03:45;20.90;;;19.10;;
43994;SDS011;51687;52.160;5.298;2023-03-01T09:06:12;20.95;;;18.98;;
43994;SDS011;51687;52.160;5.298;2023-03-01T09:08:41;18.80;;;17.17;;
43994;SDS011;51687;52.160;5.298;2023-03-01T09:13:38;16.25;;;14.65;;
43994;SDS011;51687;52.160;5.298;2023-03-01T09:16:10;16.50;;;15.20;;
43994;SDS011;51687;52.160;5.298;2023-03-01T09:18:37;17.95;;;15.10;;
43994;SDS011;51687;52.160;5.298;2023-03-01T09:21:06;16.02;;;14.63;;
43994;SDS011;51687;52.160;5.298;2023-03-01T09:23:38;16.10;;;14.52;;
43994;SDS011;51687;52.160;5.298;2023-03-01T09:26:11;15.50;;;14.20;;
43994;SDS011;51687;52.160;5.298;2023-03-01T09:28:42;15.77;;;14.35;;
43994;SDS011;51687;52.160;5.298;2023-03-01T09:31:10;15.13;;;13.70;;
43994;SDS011;51687;52.160;5.298;2023-03-01T09:33:41;14.98;;;13.60;;
43994;SDS011;51687;52.160;5.298;2023-03-01T09:36:12;14.45;;;13.25;;
43994;SDS011;51687;52.160;5.298;2023-03-01T09:38:42;17.17;;;15.77;;
43994;SDS011;51687;52.160;5.298;2023-03-01T09:44:25;13.98;;;12.95;;
43994;SDS011;51687;52.160;5.298;2023-03-01T09:46:58;13.68;;;12.52;;
43994;SDS011;51687;52.160;5.298;2023-03-01T09:49:30;13.10;;;11.88;;
43994;SDS011;51687;52.160;5.298;2023-03-01T09:52:02;12.38;;;11.15;;
43994;SDS011;51687;52.160;5.298;2023-03-01T09:54:41;11.95;;;11.05;;
43994;SDS011;51687;52.160;5.298;2023-03-01T09:57:20;12.65;;;11.65;;
43994;SDS011;51687;52.160;5.298;2023-03-01T10:02:45;12.63;;;11.25;;
43994;SDS011;51687;52.160;5.298;2023-03-01T10:10:44;8.82;;;6.45;;
43994;SDS011;51687;52.160;5.298;2023-03-01T10:13:15;9.15;;;8.18;;
43994;SDS011;51687;52.160;5.298;2023-03-01T10:15:49;10.30;;;9.10;;
43994;SDS011;51687;52.160;5.298;2023-03-01T10:18:25;9.90;;;8.95;;
43994;SDS011;51687;52.160;5.298;2023-03-01T10:21:00;9.07;;;8.38;;
43994;SDS011;51687;52.160;5.298;2023-03-01T10:23:30;7.97;;;7.03;;
43994;SDS011;51687;52.160;5.298;2023-03-01T10:28:56;7.03;;;5.82;;
43994;SDS011;51687;52.160;5.298;2023-03-01T10:31:25;8.38;;;7.68;;
43994;SDS011;51687;52.160;5.298;2023-03-01T10:33:56;7.43;;;6.82;;
43994;SDS011;51687;52.160;5.298;2023-03-01T10:38:52;7.32;;;6.72;;
43994;SDS011;51687;52.160;5.298;2023-03-01T10:41:21;8.13;;;7.07;;
43994;SDS011;51687;52.160;5.298;2023-03-01T10:43:53;7.18;;;6.47;;
43994;SDS011;51687;52.160;5.298;2023-03-01T10:46:28;7.10;;;6.60;;
43994;SDS011;51687;52.160;5.298;2023-03-01T10:51:34;6.95;;;6.25;;
43994;SDS011;51687;52.160;5.298;2023-03-01T10:54:01;6.70;;;6.05;;
43994;SDS011;51687;52.160;5.298;2023-03-01T10:56:29;7.55;;;5.53;;
43994;SDS011;51687;52.160;5.298;2023-03-01T10:59:35;6.57;;;5.97;;
43994;SDS011;51687;52.160;5.298;2023-03-01T11:02:23;6.50;;;5.90;;
43994;SDS011;51687;52.160;5.298;2023-03-01T11:04:58;6.65;;;5.97;;
43994;SDS011;51687;52.160;5.298;2023-03-01T11:07:29;7.75;;;6.97;;
43994;SDS011;51687;52.160;5.298;2023-03-01T11:09:56;7.72;;;6.97;;
43994;SDS011;51687;52.160;5.298;2023-03-01T11:12:23;6.55;;;5.95;;
43994;SDS011;51687;52.160;5.298;2023-03-01T11:14:52;6.88;;;6.18;;
43994;SDS011;51687;52.160;5.298;2023-03-01T11:22:59;7.07;;;3.75;;
43994;SDS011;51687;52.160;5.298;2023-03-01T11:25:35;6.87;;;3.50;;
43994;SDS011;51687;52.160;5.298;2023-03-01T11:28:04;3.88;;;3.58;;
43994;SDS011;51687;52.160;5.298;2023-03-01T11:30:35;4.30;;;3.90;;
43994;SDS011;51687;52.160;5.298;2023-03-01T11:39:02;3.92;;;3.30;;
43994;SDS011;51687;52.160;5.298;2023-03-01T11:41:51;3.67;;;3.20;;
43994;SDS011;51687;52.160;5.298;2023-03-01T11:44:44;4.65;;;3.40;;
43994;SDS011;51687;52.160;5.298;2023-03-01T11:47:23;3.20;;;2.90;;
43994;SDS011;51687;52.160;5.298;2023-03-01T11:53:05;3.00;;;2.67;;
43994;SDS011;51687;52.160;5.298;2023-03-01T11:55:50;4.50;;;3.50;;
43994;SDS011;51687;52.160;5.298;2023-03-01T12:07:05;3.60;;;3.30;;
43994;SDS011;51687;52.160;5.298;2023-03-01T12:09:59;4.00;;;3.70;;
43994;SDS011;51687;52.160;5.298;2023-03-01T12:13:42;4.88;;;4.47;;
43994;SDS011;51687;52.160;5.298;2023-03-01T12:18:49;5.95;;;4.35;;
43994;SDS011;51687;52.160;5.298;2023-03-01T12:29:54;4.97;;;4.30;;
43994;SDS011;51687;52.160;5.298;2023-03-01T12:32:45;4.10;;;3.80;;
43994;SDS011;51687;52.160;5.298;2023-03-01T12:35:33;5.13;;;3.92;;
43994;SDS011;51687;52.160;5.298;2023-03-01T12:43:55;3.92;;;3.58;;
43994;SDS011;51687;52.160;5.298;2023-03-01T12:49:28;3.60;;;3.30;;
43994;SDS011;51687;52.160;5.298;2023-03-01T12:52:29;3.78;;;3.47;;
43994;SDS011;51687;52.160;5.298;2023-03-01T13:08:57;3.63;;;3.28;;
43994;SDS011;51687;52.160;5.298;2023-03-01T13:11:26;4.22;;;2.97;;
43994;SDS011;51687;52.160;5.298;2023-03-01T13:14:23;3.55;;;3.25;;
43994;SDS011;51687;52.160;5.298;2023-03-01T13:16:41;3.60;;;3.30;;
43994;SDS011;51687;52.160;5.298;2023-03-01T13:21:38;3.03;;;2.83;;
43994;SDS011;51687;52.160;5.298;2023-03-01T13:24:22;3.45;;;2.75;;
43994;SDS011;51687;52.160;5.298;2023-03-01T13:27:32;3.20;;;2.90;;
43994;SDS011;51687;52.160;5.298;2023-03-01T13:29:50;4.30;;;2.50;;
43994;SDS011;51687;52.160;5.298;2023-03-01T13:32:28;3.30;;;3.00;;
43994;SDS011;51687;52.160;5.298;2023-03-01T13:37:43;4.20;;;3.10;;
43994;SDS011;51687;52.160;5.298;2023-03-01T13:42:45;5.40;;;3.70;;
43994;SDS011;51687;52.160;5.298;2023-03-01T13:48:21;4.10;;;3.22;;
43994;SDS011;51687;52.160;5.298;2023-03-01T13:51:01;4.03;;;2.90;;
43994;SDS011;51687;52.160;5.298;2023-03-01T13:53:32;4.05;;;3.50;;
43994;SDS011;51687;52.160;5.298;2023-03-01T13:56:03;3.63;;;3.33;;
43994;SDS011;51687;52.160;5.298;2023-03-01T13:58:43;4.72;;;3.15;;
43994;SDS011;51687;52.160;5.298;2023-03-01T14:01:22;3.47;;;2.85;;
43994;SDS011;51687;52.160;5.298;2023-03-01T14:03:57;3.13;;;2.83;;
43994;SDS011;51687;52.160;5.298;2023-03-01T14:06:29;3.83;;;3.20;;
43994;SDS011;51687;52.160;5.298;2023-03-01T14:09:15;3.55;;;3.00;;
43994;SDS011;51687;52.160;5.298;2023-03-01T14:14:26;3.70;;;2.83;;
43994;SDS011;51687;52.160;5.298;2023-03-01T14:19:38;7.40;;;2.97;;
43994;SDS011;51687;52.160;5.298;2023-03-01T14:22:17;3.88;;;2.92;;
43994;SDS011;51687;52.160;5.298;2023-03-01T14:27:12;6.00;;;3.72;;
43994;SDS011;51687;52.160;5.298;2023-03-01T14:29:40;4.13;;;3.10;;
43994;SDS011;51687;52.160;5.298;2023-03-01T14:32:12;3.58;;;3.30;;
43994;SDS011;51687;52.160;5.298;2023-03-01T14:34:44;3.40;;;2.88;;
43994;SDS011;51687;52.160;5.298;2023-03-01T14:37:19;3.65;;;3.35;;
43994;SDS011;51687;52.160;5.298;2023-03-01T14:39:46;5.97;;;3.45;;
43994;SDS011;51687;52.160;5.298;2023-03-01T14:42:14;4.97;;;3.35;;
43994;SDS011;51687;52.160;5.298;2023-03-01T14:44:43;6.28;;;5.00;;
43994;SDS011;51687;52.160;5.298;2023-03-01T14:47:16;4.97;;;4.57;;
43994;SDS011;51687;52.160;5.298;2023-03-01T14:49:58;4.15;;;3.85;;
43994;SDS011;51687;52.160;5.298;2023-03-01T14:52:33;4.15;;;3.85;;
43994;SDS011;51687;52.160;5.298;2023-03-01T14:55:07;5.00;;;4.60;;
43994;SDS011;51687;52.160;5.298;2023-03-01T14:57:46;4.13;;;3.83;;
43994;SDS011;51687;52.160;5.298;2023-03-01T15:00:16;6.72;;;3.75;;
43994;SDS011;51687;52.160;5.298;2023-03-01T15:02:47;3.40;;;3.08;;
43994;SDS011;51687;52.160;5.298;2023-03-01T15:05:24;3.42;;;3.13;;
43994;SDS011;51687;52.160;5.298;2023-03-01T15:08:02;4.15;;;3.75;;
43994;SDS011;51687;52.160;5.298;2023-03-01T15:10:32;4.35;;;3.90;;
43994;SDS011;51687;52.160;5.298;2023-03-01T15:16:04;4.07;;;3.72;;
43994;SDS011;51687;52.160;5.298;2023-03-01T15:18:35;4.95;;;4.55;;
43994;SDS011;51687;52.160;5.298;2023-03-01T15:21:17;4.50;;;4.10;;
43994;SDS011;51687;52.160;5.298;2023-03-01T15:23:59;5.00;;;3.97;;
43994;SDS011;51687;52.160;5.298;2023-03-01T15:26:30;4.47;;;3.35;;
43994;SDS011;51687;52.160;5.298;2023-03-01T15:29:01;7.93;;;3.63;;
43994;SDS011;51687;52.160;5.298;2023-03-01T15:31:29;4.18;;;3.88;;
43994;SDS011;51687;52.160;5.298;2023-03-01T15:37:06;3.92;;;3.63;;
43994;SDS011;51687;52.160;5.298;2023-03-01T15:47:47;6.90;;;4.13;;
43994;SDS011;51687;52.160;5.298;2023-03-01T15:50:36;12.43;;;4.25;;
43994;SDS011;51687;52.160;5.298;2023-03-01T15:53:07;4.18;;;2.97;;
43994;SDS011;51687;52.160;5.298;2023-03-01T15:55:37;4.32;;;3.95;;
43994;SDS011;51687;52.160;5.298;2023-03-01T16:00:42;3.93;;;3.60;;
43994;SDS011;51687;52.160;5.298;2023-03-01T16:03:25;4.32;;;3.58;;
43994;SDS011;51687;52.160;5.298;2023-03-01T16:05:53;4.20;;;3.88;;
43994;SDS011;51687;52.160;5.298;2023-03-01T16:08:20;4.40;;;4.00;;
43994;SDS011;51687;52.160;5.298;2023-03-01T16:10:47;5.78;;;3.85;;
43994;SDS011;51687;52.160;5.298;2023-03-01T16:13:16;5.57;;;3.58;;
43994;SDS011;51687;52.160;5.298;2023-03-01T16:15:43;3.57;;;3.17;;
43994;SDS011;51687;52.160;5.298;2023-03-01T16:18:10;3.90;;;3.50;;
43994;SDS011;51687;52.160;5.298;2023-03-01T16:20:38;3.70;;;3.40;;
43994;SDS011;51687;52.160;5.298;2023-03-01T16:23:06;4.10;;;3.80;;
43994;SDS011;51687;52.160;5.298;2023-03-01T16:25:34;4.72;;;4.18;;
43994;SDS011;51687;52.160;5.298;2023-03-01T16:28:02;5.37;;;4.47;;
43994;SDS011;51687;52.160;5.298;2023-03-01T16:30:31;4.72;;;4.25;;
43994;SDS011;51687;52.160;5.298;2023-03-01T16:32:59;5.22;;;4.72;;
43994;SDS011;51687;52.160;5.298;2023-03-01T16:35:26;4.28;;;3.97;;
43994;SDS011;51687;52.160;5.298;2023-03-01T16:37:53;4.40;;;3.95;;
43994;SDS011;51687;52.160;5.298;2023-03-01T16:40:21;5.43;;;4.32;;
43994;SDS011;51687;52.160;5.298;2023-03-01T16:42:50;4.32;;;3.92;;
43994;SDS011;51687;52.160;5.298;2023-03-01T16:45:18;5.25;;;4.75;;
43994;SDS011;51687;52.160;5.298;2023-03-01T16:47:50;5.20;;;4.80;;
43994;SDS011;51687;52.160;5.298;2023-03-01T16:50:20;5.68;;;4.85;;
43994;SDS011;51687;52.160;5.298;2023-03-01T16:52:47;5.30;;;4.80;;
43994;SDS011;51687;52.160;5.298;2023-03-01T16:55:14;5.10;;;4.70;;
43994;SDS011;51687;52.160;5.298;2023-03-01T16:57:41;6.28;;;4.90;;
43994;SDS011;51687;52.160;5.298;2023-03-01T17:00:10;5.78;;;4.75;;
43994;SDS011;51687;52.160;5.298;2023-03-01T17:02:39;5.60;;;5.10;;
43994;SDS011;51687;52.160;5.298;2023-03-01T17:05:07;5.78;;;5.28;;
43994;SDS011;51687;52.160;5.298;2023-03-01T17:10:03;9.32;;;6.72;;
43994;SDS011;51687;52.160;5.298;2023-03-01T17:12:34;10.05;;;9.07;;
43994;SDS011;51687;52.160;5.298;2023-03-01T17:15:01;8.73;;;8.02;;
43994;SDS011;51687;52.160;5.298;2023-03-01T17:17:29;7.35;;;6.65;;
43994;SDS011;51687;52.160;5.298;2023-03-01T17:19:56;7.80;;;7.20;;